createdAt,value
2023-04-23T00:00:36.809Z,16.87
2023-04-23T00:05:42.248Z,16.67
2023-04-23T00:10:44.912Z,16.30
2023-04-23T00:15:48.529Z,16.14
2023-04-23T00:20:51.142Z,16.16
2023-04-23T00:25:54.028Z,16.17
2023-04-23T00:30:56.618Z,15.96
2023-04-23T00:35:59.360Z,15.95
2023-04-23T00:41:01.996Z,15.89
2023-04-23T00:46:05.237Z,15.97
2023-04-23T00:51:08.350Z,15.96
2023-04-23T00:56:11.766Z,15.88
2023-04-23T01:01:14.611Z,15.98
2023-04-23T01:06:17.798Z,15.83
2023-04-23T01:11:20.644Z,15.77
2023-04-23T01:16:23.412Z,15.79
2023-04-23T01:21:26.687Z,15.73
2023-04-23T01:26:30.035Z,15.87
2023-04-23T01:31:33.275Z,16.13
2023-04-23T01:36:36.586Z,16.14
2023-04-23T01:41:39.334Z,16.01
2023-04-23T01:46:42.457Z,16.02
2023-04-23T01:51:45.191Z,15.92
2023-04-23T01:56:48.185Z,15.83
2023-04-23T02:01:51.096Z,15.76
2023-04-23T02:06:54.094Z,15.29
2023-04-23T02:11:57.837Z,14.95
2023-04-23T02:17:00.359Z,14.64
2023-04-23T02:22:03.330Z,14.37
2023-04-23T02:27:06.111Z,14.30
2023-04-23T02:32:08.761Z,14.31
2023-04-23T02:37:12.253Z,14.29
2023-04-23T02:42:15.122Z,14.08
2023-04-23T02:47:17.920Z,14.03
2023-04-23T02:52:20.662Z,14.06
2023-04-23T02:57:23.478Z,13.74
2023-04-23T03:02:26.758Z,13.68
2023-04-23T03:07:29.474Z,13.56
2023-04-23T03:12:32.181Z,13.59
2023-04-23T03:17:36.143Z,13.72
2023-04-23T03:22:39.325Z,13.60
2023-04-23T03:27:44.143Z,13.73
2023-04-23T03:32:46.935Z,13.57
2023-04-23T03:37:49.751Z,13.52
2023-04-23T03:42:53.037Z,13.45
2023-04-23T03:48:02.426Z,13.36
2023-04-23T03:53:05.639Z,13.41
2023-04-23T03:58:36.874Z,13.20
2023-04-23T04:03:39.931Z,13.12
2023-04-23T04:08:42.636Z,13.14
2023-04-23T04:13:45.151Z,13.06
2023-04-23T04:18:48.020Z,12.98
2023-04-23T04:23:51.279Z,12.88
2023-04-23T04:28:53.787Z,12.81
2023-04-23T04:33:56.492Z,12.74
2023-04-23T04:38:58.972Z,12.76
2023-04-23T04:44:01.431Z,12.69
2023-04-23T04:49:04.388Z,12.73
2023-04-23T04:54:07.710Z,12.92
2023-04-23T04:59:10.164Z,13.04
2023-04-23T05:04:12.858Z,13.36
2023-04-23T05:09:15.620Z,14.07
2023-04-23T05:14:18.529Z,14.29
2023-04-23T05:19:21.225Z,13.72
2023-04-23T05:24:23.736Z,13.91
2023-04-23T05:29:26.453Z,14.19
2023-04-23T05:34:28.971Z,13.69
2023-04-23T05:39:31.472Z,14.20
2023-04-23T05:44:34.104Z,13.75
2023-04-23T05:49:36.563Z,13.82
2023-04-23T05:54:42.063Z,13.88
2023-04-23T05:59:44.788Z,13.91
2023-04-23T06:04:48.079Z,13.99
2023-04-23T06:09:51.048Z,14.18
2023-04-23T06:14:53.792Z,13.80
2023-04-23T06:19:56.505Z,14.09
2023-04-23T06:24:59.221Z,14.04
2023-04-23T06:30:01.705Z,13.85
2023-04-23T06:35:05.421Z,14.22
2023-04-23T06:40:08.575Z,14.40
2023-04-23T06:45:11.782Z,14.61
2023-04-23T06:50:14.519Z,15.34
2023-04-23T06:55:17.359Z,15.89
2023-04-23T07:00:20.758Z,16.73
2023-04-23T07:05:23.555Z,16.58
2023-04-23T07:10:26.267Z,16.57
2023-04-23T07:15:29.113Z,16.46
2023-04-23T07:20:31.950Z,16.85
2023-04-23T07:25:34.519Z,15.97
2023-04-23T07:30:37.158Z,16.79
2023-04-23T07:35:39.751Z,18.13
2023-04-23T07:40:42.400Z,18.98
2023-04-23T07:45:44.989Z,18.84
2023-04-23T07:50:47.975Z,18.76
2023-04-23T07:55:50.696Z,17.60
2023-04-23T08:00:53.420Z,16.52
2023-04-23T08:05:56.974Z,17.30
2023-04-23T08:10:59.672Z,18.09
2023-04-23T08:16:02.336Z,18.81
2023-04-23T08:21:05.018Z,18.04
2023-04-23T08:26:07.780Z,17.04
2023-04-23T08:31:22.821Z,18.08
2023-04-23T08:36:29.656Z,18.09
2023-04-23T08:41:40.408Z,17.95
2023-04-23T08:46:45.064Z,19.23
2023-04-23T08:51:52.446Z,20.06
2023-04-23T08:56:59.178Z,19.04
2023-04-23T09:02:08.391Z,18.16
2023-04-23T09:07:12.715Z,17.42
2023-04-23T09:12:16.913Z,18.02
2023-04-23T09:17:21.188Z,17.92
2023-04-23T09:22:39.695Z,17.63
2023-04-23T09:27:42.505Z,18.72
2023-04-23T09:32:47.271Z,19.40
2023-04-23T09:37:53.061Z,20.07
2023-04-23T09:42:56.065Z,19.56
2023-04-23T09:47:59.376Z,19.98
2023-04-23T09:53:02.178Z,24.20
2023-04-23T09:58:12.438Z,23.61
2023-04-23T10:03:16.129Z,23.05
2023-04-23T10:08:19.832Z,25.13
2023-04-23T10:13:22.367Z,26.62
2023-04-23T10:18:25.674Z,25.07
2023-04-23T10:23:28.355Z,24.30
2023-04-23T10:28:32.749Z,21.48
2023-04-23T10:33:42.914Z,22.22
2023-04-23T10:38:58.289Z,21.48
2023-04-23T10:44:03.036Z,20.85
2023-04-23T10:49:16.698Z,22.71
2023-04-23T10:54:20.823Z,22.73
2023-04-23T10:59:23.530Z,22.21
2023-04-23T11:04:27.828Z,20.69
2023-04-23T11:09:43.063Z,20.85
2023-04-23T11:14:50.722Z,20.82
2023-04-23T11:20:24.023Z,21.71
2023-04-23T11:25:28.191Z,21.03
2023-04-23T11:30:31.634Z,20.01
2023-04-23T11:35:40.884Z,20.38
2023-04-23T11:40:48.706Z,22.82
2023-04-23T11:45:51.560Z,25.07
2023-04-23T11:50:54.414Z,23.95
2023-04-23T11:55:58.109Z,23.37
2023-04-23T12:01:01.541Z,21.40
2023-04-23T12:06:04.089Z,20.79
2023-04-23T12:11:07.248Z,20.45
2023-04-23T12:16:11.067Z,20.42
2023-04-23T12:21:14.661Z,19.95
2023-04-23T12:26:17.969Z,19.62
2023-04-23T12:31:22.753Z,20.25
2023-04-23T12:36:32.125Z,22.30
2023-04-23T12:41:34.628Z,24.81
2023-04-23T12:46:37.313Z,26.84
2023-04-23T12:51:39.870Z,27.31
2023-04-23T12:56:42.713Z,24.93
2023-04-23T13:01:45.428Z,22.43
2023-04-23T13:06:48.578Z,25.14
2023-04-23T13:11:51.758Z,26.16
2023-04-23T13:16:54.892Z,26.17
2023-04-23T13:21:57.045Z,26.00
2023-04-23T13:26:59.710Z,27.15
2023-04-23T13:32:01.996Z,24.19
2023-04-23T13:37:05.966Z,22.98
2023-04-23T13:42:09.951Z,24.13
2023-04-23T13:47:12.447Z,23.40
2023-04-23T13:52:14.659Z,25.77
2023-04-23T13:57:16.871Z,26.40
2023-04-23T14:02:19.326Z,26.62
2023-04-23T14:07:21.713Z,28.49
2023-04-23T14:12:25.722Z,28.14
2023-04-23T14:17:28.143Z,25.42
2023-04-23T14:22:30.662Z,24.23
2023-04-23T14:27:41.001Z,24.16
2023-04-23T14:32:43.604Z,23.05
2023-04-23T14:37:46.172Z,22.81
2023-04-23T14:42:49.776Z,23.00
2023-04-23T14:47:52.242Z,22.30
2023-04-23T14:52:55.270Z,21.48
2023-04-23T14:57:57.474Z,21.24
2023-04-23T15:03:00.056Z,21.05
2023-04-23T15:08:02.248Z,20.48
2023-04-23T15:13:24.606Z,20.36
2023-04-23T15:18:27.553Z,20.55
2023-04-23T15:23:31.902Z,20.49
2023-04-23T15:28:34.308Z,20.47
2023-04-23T15:33:36.518Z,20.31
2023-04-23T15:38:38.883Z,19.19
2023-04-23T15:43:41.045Z,19.10
2023-04-23T15:48:44.171Z,18.08
2023-04-23T15:53:46.506Z,17.93
2023-04-23T15:58:49.981Z,17.92
2023-04-23T16:04:08.638Z,18.11
2023-04-23T16:09:12.815Z,17.98
2023-04-23T16:14:15.148Z,17.93
2023-04-23T16:19:17.969Z,17.80
2023-04-23T16:24:22.335Z,17.63
2023-04-23T16:29:25.038Z,17.50
2023-04-23T16:34:27.203Z,17.20
2023-04-23T16:39:32.203Z,15.86
2023-04-23T16:44:34.578Z,16.45
2023-04-23T16:49:36.926Z,16.64
2023-04-23T16:54:39.224Z,16.03
2023-04-23T16:59:41.611Z,15.70
2023-04-23T17:04:44.276Z,15.54
2023-04-23T17:09:46.581Z,15.85
2023-04-23T17:14:49.579Z,15.97
2023-04-23T17:19:52.540Z,15.67
2023-04-23T17:24:54.728Z,15.55
2023-04-23T17:29:56.927Z,15.44
2023-04-23T17:35:09.552Z,15.42
2023-04-23T17:40:13.317Z,15.29
2023-04-23T17:45:15.532Z,15.21
2023-04-23T17:50:17.742Z,15.25
2023-04-23T17:55:22.076Z,15.25
2023-04-23T18:00:27.251Z,15.47
2023-04-23T18:05:29.694Z,15.79
2023-04-23T18:10:32.017Z,16.17
2023-04-23T18:15:34.603Z,16.58
2023-04-23T18:20:39.052Z,16.81
2023-04-23T18:25:42.222Z,16.78
2023-04-23T18:30:44.702Z,16.44
2023-04-23T18:35:48.560Z,15.76
2023-04-23T18:40:50.976Z,15.64
2023-04-23T18:45:53.716Z,15.31
2023-04-23T18:50:57.976Z,15.05
2023-04-23T18:56:00.097Z,15.06
2023-04-23T19:01:02.748Z,14.91
2023-04-23T19:06:07.875Z,15.24
2023-04-23T19:11:10.193Z,15.57
2023-04-23T19:16:12.459Z,16.03
2023-04-23T19:21:14.665Z,15.88
2023-04-23T19:26:16.734Z,14.90
2023-04-23T19:31:19.076Z,14.47
2023-04-23T19:36:21.370Z,13.86
2023-04-23T19:41:23.841Z,13.77
2023-04-23T19:46:26.262Z,13.59
2023-04-23T19:51:35.541Z,13.47
2023-04-23T19:56:37.750Z,13.18
2023-04-23T20:01:40.959Z,12.98
2023-04-23T20:06:46.241Z,12.82
2023-04-23T20:11:48.450Z,12.74
2023-04-23T20:16:50.867Z,12.82
2023-04-23T20:21:53.905Z,13.02
2023-04-23T20:26:56.786Z,13.16
2023-04-23T20:32:02.748Z,13.19
2023-04-23T20:37:07.016Z,12.82
2023-04-23T20:42:09.201Z,12.67
2023-04-23T20:47:11.761Z,12.69
2023-04-23T20:52:15.451Z,12.53
2023-04-23T20:57:17.842Z,12.50
2023-04-23T21:02:20.333Z,12.33
2023-04-23T21:07:22.804Z,12.30
2023-04-23T21:12:25.239Z,12.18
2023-04-23T21:17:27.606Z,12.06
2023-04-23T21:22:29.897Z,12.15
2023-04-23T21:27:32.257Z,12.14
2023-04-23T21:32:34.563Z,12.15
2023-04-23T21:37:38.177Z,12.17
2023-04-23T21:42:40.419Z,12.17
2023-04-23T21:47:42.623Z,12.07
2023-04-23T21:52:45.244Z,11.91
2023-04-23T21:57:51.291Z,11.82
2023-04-23T22:02:56.475Z,11.83
2023-04-23T22:07:59.658Z,11.75
2023-04-23T22:13:02.295Z,11.74
2023-04-23T22:18:05.616Z,11.75
2023-04-23T22:23:08.027Z,11.75
2023-04-23T22:28:10.189Z,11.77
2023-04-23T22:33:12.998Z,11.76
2023-04-23T22:38:15.941Z,11.77
2023-04-23T22:43:18.074Z,11.81
2023-04-23T22:48:21.548Z,11.81
2023-04-23T22:53:24.025Z,11.85
2023-04-23T22:58:26.174Z,11.83
2023-04-23T23:03:28.494Z,11.93
2023-04-23T23:08:30.689Z,11.87
2023-04-23T23:13:32.801Z,11.86
2023-04-23T23:18:34.958Z,11.85
2023-04-23T23:23:37.669Z,11.86
2023-04-23T23:28:40.070Z,11.85
2023-04-23T23:33:42.278Z,11.81
2023-04-23T23:38:44.385Z,11.78
2023-04-23T23:43:46.570Z,11.81
2023-04-23T23:48:48.852Z,11.87
2023-04-23T23:53:51.064Z,11.90
2023-04-23T23:58:53.552Z,11.93
